sensor_id;sensor_type;location;lat;lon;timestamp;temperature;humidity
52643;DHT22;38531;53.296;6.614;2023-12-28T00:00:34;9.10;99.90
52643;DHT22;38531;53.296;6.614;2023-12-28T00:03:00;9.40;99.90
52643;DHT22;38531;53.296;6.614;2023-12-28T00:05:26;9.50;99.90
52643;DHT22;38531;53.296;6.614;2023-12-28T00:07:51;9.10;99.90
52643;DHT22;38531;53.296;6.614;2023-12-28T00:10:24;9.20;99.90
52643;DHT22;38531;53.296;6.614;2023-12-28T00:12:50;9.10;99.90
52643;DHT22;38531;53.296;6.614;2023-12-28T00:15:16;9.20;99.90
52643;DHT22;38531;53.296;6.614;2023-12-28T00:17:41;9.10;99.90
52643;DHT22;38531;53.296;6.614;2023-12-28T00:20:07;9.90;99.90
52643;DHT22;38531;53.296;6.614;2023-12-28T00:22:33;9.20;99.90
52643;DHT22;38531;53.296;6.614;2023-12-28T00:24:59;9.10;99.90
52643;DHT22;38531;53.296;6.614;2023-12-28T00:27:25;9.10;99.90
52643;DHT22;38531;53.296;6.614;2023-12-28T00:29:50;9.60;99.90
52643;DHT22;38531;53.296;6.614;2023-12-28T00:32:16;9.10;99.90
52643;DHT22;38531;53.296;6.614;2023-12-28T00:34:42;9.60;99.90
52643;DHT22;38531;53.296;6.614;2023-12-28T00:37:07;9.20;99.90
52643;DHT22;38531;53.296;6.614;2023-12-28T00:39:33;9.10;99.90
52643;DHT22;38531;53.296;6.614;2023-12-28T00:42:00;9.20;99.90
52643;DHT22;38531;53.296;6.614;2023-12-28T00:44:26;9.10;99.90
52643;DHT22;38531;53.296;6.614;2023-12-28T00:46:52;9.40;99.90
52643;DHT22;38531;53.296;6.614;2023-12-28T00:49:17;9.30;99.90
52643;DHT22;38531;53.296;6.614;2023-12-28T00:51:43;9.30;99.90
52643;DHT22;38531;53.296;6.614;2023-12-28T00:54:09;9.10;99.90
52643;DHT22;38531;53.296;6.614;2023-12-28T00:56:35;9.00;99.90
52643;DHT22;38531;53.296;6.614;2023-12-28T00:59:00;9.10;99.90
52643;DHT22;38531;53.296;6.614;2023-12-28T01:01:28;9.70;99.90
52643;DHT22;38531;53.296;6.614;2023-12-28T01:03:56;9.20;99.90
52643;DHT22;38531;53.296;6.614;2023-12-28T01:06:22;9.10;99.90
52643;DHT22;38531;53.296;6.614;2023-12-28T01:08:48;10.00;99.90
52643;DHT22;38531;53.296;6.614;2023-12-28T01:11:13;9.80;99.90
52643;DHT22;38531;53.296;6.614;2023-12-28T01:13:39;9.10;99.90
52643;DHT22;38531;53.296;6.614;2023-12-28T01:16:05;9.10;99.90
52643;DHT22;38531;53.296;6.614;2023-12-28T01:18:31;9.10;99.90
52643;DHT22;38531;53.296;6.614;2023-12-28T01:20:56;9.20;99.90
52643;DHT22;38531;53.296;6.614;2023-12-28T01:23:22;9.50;99.90
52643;DHT22;38531;53.296;6.614;2023-12-28T01:25:48;9.40;99.90
52643;DHT22;38531;53.296;6.614;2023-12-28T01:28:13;9.50;99.90
52643;DHT22;38531;53.296;6.614;2023-12-28T01:30:39;10.00;99.90
52643;DHT22;38531;53.296;6.614;2023-12-28T01:33:05;9.70;99.90
52643;DHT22;38531;53.296;6.614;2023-12-28T01:35:31;9.20;99.90
52643;DHT22;38531;53.296;6.614;2023-12-28T01:37:56;9.20;99.90
52643;DHT22;38531;53.296;6.614;2023-12-28T01:40:23;9.20;99.90
52643;DHT22;38531;53.296;6.614;2023-12-28T01:42:48;9.80;99.90
52643;DHT22;38531;53.296;6.614;2023-12-28T01:45:14;9.70;99.90
52643;DHT22;38531;53.296;6.614;2023-12-28T01:47:40;9.20;99.90
52643;DHT22;38531;53.296;6.614;2023-12-28T01:50:06;9.50;99.90
52643;DHT22;38531;53.296;6.614;2023-12-28T01:52:32;9.10;99.90
52643;DHT22;38531;53.296;6.614;2023-12-28T01:54:59;9.80;99.90
52643;DHT22;38531;53.296;6.614;2023-12-28T01:57:24;9.30;99.90
52643;DHT22;38531;53.296;6.614;2023-12-28T01:59:51;9.10;99.90
52643;DHT22;38531;53.296;6.614;2023-12-28T02:02:18;9.70;99.90
52643;DHT22;38531;53.296;6.614;2023-12-28T02:04:44;9.20;99.90
52643;DHT22;38531;53.296;6.614;2023-12-28T02:07:11;9.50;99.90
52643;DHT22;38531;53.296;6.614;2023-12-28T02:09:37;9.00;99.90
52643;DHT22;38531;53.296;6.614;2023-12-28T02:12:03;9.60;99.90
52643;DHT22;38531;53.296;6.614;2023-12-28T02:14:29;9.00;99.90
52643;DHT22;38531;53.296;6.614;2023-12-28T02:19:55;9.00;99.90
52643;DHT22;38531;53.296;6.614;2023-12-28T02:22:25;9.00;99.90
52643;DHT22;38531;53.296;6.614;2023-12-28T02:25:10;9.10;99.90
52643;DHT22;38531;53.296;6.614;2023-12-28T02:30:07;9.60;99.90
52643;DHT22;38531;53.296;6.614;2023-12-28T02:35:30;9.00;99.90
52643;DHT22;38531;53.296;6.614;2023-12-28T02:38:01;8.90;99.90
52643;DHT22;38531;53.296;6.614;2023-12-28T02:40:29;9.20;99.90
52643;DHT22;38531;53.296;6.614;2023-12-28T02:42:56;8.90;99.90
52643;DHT22;38531;53.296;6.614;2023-12-28T02:45:22;9.50;99.90
52643;DHT22;38531;53.296;6.614;2023-12-28T02:47:47;9.40;99.90
52643;DHT22;38531;53.296;6.614;2023-12-28T02:50:13;8.90;99.90
52643;DHT22;38531;53.296;6.614;2023-12-28T02:52:39;8.90;99.90
52643;DHT22;38531;53.296;6.614;2023-12-28T02:55:05;9.00;99.90
52643;DHT22;38531;53.296;6.614;2023-12-28T02:57:31;9.00;99.90
52643;DHT22;38531;53.296;6.614;2023-12-28T02:59:56;9.10;99.90
52643;DHT22;38531;53.296;6.614;2023-12-28T03:02:26;9.50;99.90
52643;DHT22;38531;53.296;6.614;2023-12-28T03:04:52;9.70;99.90
52643;DHT22;38531;53.296;6.614;2023-12-28T03:07:18;9.10;99.90
52643;DHT22;38531;53.296;6.614;2023-12-28T03:09:43;9.40;99.90
52643;DHT22;38531;53.296;6.614;2023-12-28T03:12:09;9.20;99.90
52643;DHT22;38531;53.296;6.614;2023-12-28T03:14:35;9.40;99.90
52643;DHT22;38531;53.296;6.614;2023-12-28T03:17:00;9.90;99.90
52643;DHT22;38531;53.296;6.614;2023-12-28T03:19:26;10.00;99.90
52643;DHT22;38531;53.296;6.614;2023-12-28T03:21:52;9.50;99.90
52643;DHT22;38531;53.296;6.614;2023-12-28T03:24:17;9.70;99.90
52643;DHT22;38531;53.296;6.614;2023-12-28T03:26:43;9.60;99.90
52643;DHT22;38531;53.296;6.614;2023-12-28T03:29:09;9.40;99.90
52643;DHT22;38531;53.296;6.614;2023-12-28T03:31:41;9.70;99.90
52643;DHT22;38531;53.296;6.614;2023-12-28T03:34:07;9.50;99.90
52643;DHT22;38531;53.296;6.614;2023-12-28T03:36:33;10.20;99.90
52643;DHT22;38531;53.296;6.614;2023-12-28T03:38:58;9.50;99.90
52643;DHT22;38531;53.296;6.614;2023-12-28T03:41:24;9.70;99.90
52643;DHT22;38531;53.296;6.614;2023-12-28T03:43:50;9.70;99.90
52643;DHT22;38531;53.296;6.614;2023-12-28T03:46:15;9.60;99.90
52643;DHT22;38531;53.296;6.614;2023-12-28T03:48:41;9.70;99.90
52643;DHT22;38531;53.296;6.614;2023-12-28T03:51:07;9.70;99.90
52643;DHT22;38531;53.296;6.614;2023-12-28T03:53:33;9.70;99.90
52643;DHT22;38531;53.296;6.614;2023-12-28T03:55:59;9.70;99.90
52643;DHT22;38531;53.296;6.614;2023-12-28T03:58:24;10.10;99.90
52643;DHT22;38531;53.296;6.614;2023-12-28T04:00:50;10.00;99.90
52643;DHT22;38531;53.296;6.614;2023-12-28T04:03:16;10.20;99.90
52643;DHT22;38531;53.296;6.614;2023-12-28T04:05:43;10.20;99.90
52643;DHT22;38531;53.296;6.614;2023-12-28T04:08:09;10.30;99.90
52643;DHT22;38531;53.296;6.614;2023-12-28T04:10:35;10.10;99.90
52643;DHT22;38531;53.296;6.614;2023-12-28T04:13:03;10.40;99.90
52643;DHT22;38531;53.296;6.614;2023-12-28T04:15:29;9.90;99.90
52643;DHT22;38531;53.296;6.614;2023-12-28T04:17:55;9.90;99.90
52643;DHT22;38531;53.296;6.614;2023-12-28T04:20:21;10.60;99.90
52643;DHT22;38531;53.296;6.614;2023-12-28T04:22:48;10.00;99.90
52643;DHT22;38531;53.296;6.614;2023-12-28T04:25:14;10.90;99.90
52643;DHT22;38531;53.296;6.614;2023-12-28T04:27:41;10.70;99.90
52643;DHT22;38531;53.296;6.614;2023-12-28T04:30:07;10.20;99.90
52643;DHT22;38531;53.296;6.614;2023-12-28T04:32:33;10.00;99.90
52643;DHT22;38531;53.296;6.614;2023-12-28T04:34:59;10.70;99.90
52643;DHT22;38531;53.296;6.614;2023-12-28T04:37:25;10.60;99.90
52643;DHT22;38531;53.296;6.614;2023-12-28T04:39:54;10.10;99.90
52643;DHT22;38531;53.296;6.614;2023-12-28T04:42:19;10.10;99.90
52643;DHT22;38531;53.296;6.614;2023-12-28T04:44:45;10.20;99.90
52643;DHT22;38531;53.296;6.614;2023-12-28T04:47:11;10.10;99.90
52643;DHT22;38531;53.296;6.614;2023-12-28T04:49:36;10.40;99.90
52643;DHT22;38531;53.296;6.614;2023-12-28T04:52:02;10.90;99.90
52643;DHT22;38531;53.296;6.614;2023-12-28T04:54:28;10.10;99.90
52643;DHT22;38531;53.296;6.614;2023-12-28T04:56:53;10.60;99.90
52643;DHT22;38531;53.296;6.614;2023-12-28T04:59:19;10.70;99.90
52643;DHT22;38531;53.296;6.614;2023-12-28T05:01:45;10.70;99.90
52643;DHT22;38531;53.296;6.614;2023-12-28T05:04:11;10.60;99.90
52643;DHT22;38531;53.296;6.614;2023-12-28T05:06:37;10.20;99.90
52643;DHT22;38531;53.296;6.614;2023-12-28T05:09:03;10.20;99.90
52643;DHT22;38531;53.296;6.614;2023-12-28T05:11:30;10.30;99.90
52643;DHT22;38531;53.296;6.614;2023-12-28T05:13:55;10.90;99.90
52643;DHT22;38531;53.296;6.614;2023-12-28T05:16:22;10.40;99.90
52643;DHT22;38531;53.296;6.614;2023-12-28T05:18:48;10.40;99.90
52643;DHT22;38531;53.296;6.614;2023-12-28T05:21:13;11.10;99.90
52643;DHT22;38531;53.296;6.614;2023-12-28T05:23:40;10.40;99.90
52643;DHT22;38531;53.296;6.614;2023-12-28T05:26:05;10.30;99.90
52643;DHT22;38531;53.296;6.614;2023-12-28T05:28:31;10.20;99.90
52643;DHT22;38531;53.296;6.614;2023-12-28T05:30:57;10.40;99.90
52643;DHT22;38531;53.296;6.614;2023-12-28T05:33:25;10.60;99.90
52643;DHT22;38531;53.296;6.614;2023-12-28T05:35:51;10.30;99.90
52643;DHT22;38531;53.296;6.614;2023-12-28T05:38:16;10.30;99.90
52643;DHT22;38531;53.296;6.614;2023-12-28T05:40:43;10.60;99.90
52643;DHT22;38531;53.296;6.614;2023-12-28T05:43:10;10.40;99.90
52643;DHT22;38531;53.296;6.614;2023-12-28T05:45:36;10.30;99.90
52643;DHT22;38531;53.296;6.614;2023-12-28T05:48:02;10.70;99.90
52643;DHT22;38531;53.296;6.614;2023-12-28T05:50:27;10.30;99.90
52643;DHT22;38531;53.296;6.614;2023-12-28T05:52:53;10.40;99.90
52643;DHT22;38531;53.296;6.614;2023-12-28T05:55:19;10.40;99.90
52643;DHT22;38531;53.296;6.614;2023-12-28T05:57:44;10.40;99.90
52643;DHT22;38531;53.296;6.614;2023-12-28T06:00:10;10.40;99.90
52643;DHT22;38531;53.296;6.614;2023-12-28T06:02:36;10.40;99.90
52643;DHT22;38531;53.296;6.614;2023-12-28T06:05:02;10.80;99.90
52643;DHT22;38531;53.296;6.614;2023-12-28T06:07:27;10.40;99.90
52643;DHT22;38531;53.296;6.614;2023-12-28T06:09:53;10.50;99.90
52643;DHT22;38531;53.296;6.614;2023-12-28T06:12:19;10.30;99.90
52643;DHT22;38531;53.296;6.614;2023-12-28T06:14:44;10.50;99.90
52643;DHT22;38531;53.296;6.614;2023-12-28T06:17:10;10.30;99.90
52643;DHT22;38531;53.296;6.614;2023-12-28T06:19:36;10.60;99.90
52643;DHT22;38531;53.296;6.614;2023-12-28T06:22:01;10.50;99.90
52643;DHT22;38531;53.296;6.614;2023-12-28T06:24:27;10.30;99.90
52643;DHT22;38531;53.296;6.614;2023-12-28T06:26:53;10.80;99.90
52643;DHT22;38531;53.296;6.614;2023-12-28T06:29:18;11.00;99.90
52643;DHT22;38531;53.296;6.614;2023-12-28T06:31:44;10.40;99.90
52643;DHT22;38531;53.296;6.614;2023-12-28T06:34:10;10.40;99.90
52643;DHT22;38531;53.296;6.614;2023-12-28T06:36:35;10.90;99.90
52643;DHT22;38531;53.296;6.614;2023-12-28T06:39:01;10.40;99.90
52643;DHT22;38531;53.296;6.614;2023-12-28T06:41:27;10.30;99.90
52643;DHT22;38531;53.296;6.614;2023-12-28T06:43:53;10.40;99.90
52643;DHT22;38531;53.296;6.614;2023-12-28T06:46:18;10.90;99.90
52643;DHT22;38531;53.296;6.614;2023-12-28T06:48:45;10.90;99.90
52643;DHT22;38531;53.296;6.614;2023-12-28T06:51:16;10.70;99.90
52643;DHT22;38531;53.296;6.614;2023-12-28T06:53:43;10.90;99.90
52643;DHT22;38531;53.296;6.614;2023-12-28T06:56:09;11.00;99.90
52643;DHT22;38531;53.296;6.614;2023-12-28T06:58:35;11.10;99.90
52643;DHT22;38531;53.296;6.614;2023-12-28T07:01:03;10.80;99.90
52643;DHT22;38531;53.296;6.614;2023-12-28T07:03:29;10.50;99.90
52643;DHT22;38531;53.296;6.614;2023-12-28T07:05:59;10.80;99.90
52643;DHT22;38531;53.296;6.614;2023-12-28T07:08:24;10.50;99.90
52643;DHT22;38531;53.296;6.614;2023-12-28T07:10:50;10.70;99.90
52643;DHT22;38531;53.296;6.614;2023-12-28T07:13:16;10.60;99.90
52643;DHT22;38531;53.296;6.614;2023-12-28T07:15:41;10.70;99.90
52643;DHT22;38531;53.296;6.614;2023-12-28T07:18:07;10.50;99.90
52643;DHT22;38531;53.296;6.614;2023-12-28T07:20:33;11.00;99.90
52643;DHT22;38531;53.296;6.614;2023-12-28T07:22:58;10.60;99.90
52643;DHT22;38531;53.296;6.614;2023-12-28T07:25:24;11.10;99.90
52643;DHT22;38531;53.296;6.614;2023-12-28T07:27:50;10.60;99.90
52643;DHT22;38531;53.296;6.614;2023-12-28T07:30:16;10.50;99.90
52643;DHT22;38531;53.296;6.614;2023-12-28T07:32:43;10.50;99.90
52643;DHT22;38531;53.296;6.614;2023-12-28T07:35:09;10.50;99.90
52643;DHT22;38531;53.296;6.614;2023-12-28T07:37:35;10.60;99.90
52643;DHT22;38531;53.296;6.614;2023-12-28T07:40:01;10.70;99.90
52643;DHT22;38531;53.296;6.614;2023-12-28T07:42:27;10.60;99.90
52643;DHT22;38531;53.296;6.614;2023-12-28T07:44:53;10.60;99.90
52643;DHT22;38531;53.296;6.614;2023-12-28T07:47:18;10.70;99.90
52643;DHT22;38531;53.296;6.614;2023-12-28T07:49:44;10.70;99.90
52643;DHT22;38531;53.296;6.614;2023-12-28T07:52:10;10.50;99.90
52643;DHT22;38531;53.296;6.614;2023-12-28T07:54:35;10.50;99.90
52643;DHT22;38531;53.296;6.614;2023-12-28T07:57:01;11.10;99.90
52643;DHT22;38531;53.296;6.614;2023-12-28T07:59:27;10.50;99.90
52643;DHT22;38531;53.296;6.614;2023-12-28T08:01:53;10.50;99.90
52643;DHT22;38531;53.296;6.614;2023-12-28T08:04:18;10.50;99.90
52643;DHT22;38531;53.296;6.614;2023-12-28T08:06:44;10.90;99.90
52643;DHT22;38531;53.296;6.614;2023-12-28T08:09:10;11.20;99.90
52643;DHT22;38531;53.296;6.614;2023-12-28T08:11:35;11.10;99.90
52643;DHT22;38531;53.296;6.614;2023-12-28T08:14:01;10.70;99.90
52643;DHT22;38531;53.296;6.614;2023-12-28T08:16:27;10.70;99.90
52643;DHT22;38531;53.296;6.614;2023-12-28T08:18:52;10.80;99.90
52643;DHT22;38531;53.296;6.614;2023-12-28T08:21:18;11.20;99.90
52643;DHT22;38531;53.296;6.614;2023-12-28T08:23:44;10.80;99.90
52643;DHT22;38531;53.296;6.614;2023-12-28T08:26:10;11.20;99.90
52643;DHT22;38531;53.296;6.614;2023-12-28T08:28:36;10.80;99.90
52643;DHT22;38531;53.296;6.614;2023-12-28T08:31:02;10.80;99.90
52643;DHT22;38531;53.296;6.614;2023-12-28T08:33:28;10.80;99.90
52643;DHT22;38531;53.296;6.614;2023-12-28T08:35:53;10.80;99.90
52643;DHT22;38531;53.296;6.614;2023-12-28T08:38:19;11.00;99.90
52643;DHT22;38531;53.296;6.614;2023-12-28T08:40:45;10.80;99.90
52643;DHT22;38531;53.296;6.614;2023-12-28T08:43:11;11.10;99.90
52643;DHT22;38531;53.296;6.614;2023-12-28T08:45:37;10.90;99.90
52643;DHT22;38531;53.296;6.614;2023-12-28T08:48:06;10.90;99.90
52643;DHT22;38531;53.296;6.614;2023-12-28T08:50:31;10.90;99.90
52643;DHT22;38531;53.296;6.614;2023-12-28T08:52:57;11.10;99.90
52643;DHT22;38531;53.296;6.614;2023-12-28T08:55:23;10.90;99.90
52643;DHT22;38531;53.296;6.614;2023-12-28T08:57:49;11.40;99.90
52643;DHT22;38531;53.296;6.614;2023-12-28T09:00:14;11.20;99.90
52643;DHT22;38531;53.296;6.614;2023-12-28T09:02:42;10.90;99.90
52643;DHT22;38531;53.296;6.614;2023-12-28T09:05:09;11.40;99.90
52643;DHT22;38531;53.296;6.614;2023-12-28T09:07:38;10.90;99.90
52643;DHT22;38531;53.296;6.614;2023-12-28T09:10:10;11.40;99.90
52643;DHT22;38531;53.296;6.614;2023-12-28T09:12:36;11.00;99.90
52643;DHT22;38531;53.296;6.614;2023-12-28T09:15:02;11.30;99.90
52643;DHT22;38531;53.296;6.614;2023-12-28T09:17:28;11.00;99.90
52643;DHT22;38531;53.296;6.614;2023-12-28T09:19:54;11.30;99.90
52643;DHT22;38531;53.296;6.614;2023-12-28T09:22:19;11.00;99.90
52643;DHT22;38531;53.296;6.614;2023-12-28T09:24:45;11.20;99.90
52643;DHT22;38531;53.296;6.614;2023-12-28T09:27:10;11.60;99.90
52643;DHT22;38531;53.296;6.614;2023-12-28T09:29:36;11.10;99.90
52643;DHT22;38531;53.296;6.614;2023-12-28T09:32:02;11.10;99.90
52643;DHT22;38531;53.296;6.614;2023-12-28T09:34:28;11.10;99.90
52643;DHT22;38531;53.296;6.614;2023-12-28T09:36:53;12.10;99.90
52643;DHT22;38531;53.296;6.614;2023-12-28T09:39:19;11.50;99.90
52643;DHT22;38531;53.296;6.614;2023-12-28T09:41:49;11.10;99.90
52643;DHT22;38531;53.296;6.614;2023-12-28T09:44:15;11.50;99.90
52643;DHT22;38531;53.296;6.614;2023-12-28T09:46:43;11.10;99.90
52643;DHT22;38531;53.296;6.614;2023-12-28T09:49:11;11.10;99.90
52643;DHT22;38531;53.296;6.614;2023-12-28T09:51:36;11.10;99.90
52643;DHT22;38531;53.296;6.614;2023-12-28T09:54:05;11.10;99.90
52643;DHT22;38531;53.296;6.614;2023-12-28T09:56:32;11.10;99.90
52643;DHT22;38531;53.296;6.614;2023-12-28T09:58:59;11.20;99.90
52643;DHT22;38531;53.296;6.614;2023-12-28T10:01:25;11.20;99.90
52643;DHT22;38531;53.296;6.614;2023-12-28T10:03:50;11.10;99.90
52643;DHT22;38531;53.296;6.614;2023-12-28T10:06:16;11.10;99.90
52643;DHT22;38531;53.296;6.614;2023-12-28T10:08:49;11.10;99.90
52643;DHT22;38531;53.296;6.614;2023-12-28T10:11:16;11.60;99.90
52643;DHT22;38531;53.296;6.614;2023-12-28T10:13:42;11.40;99.90
52643;DHT22;38531;53.296;6.614;2023-12-28T10:16:12;11.00;99.90
52643;DHT22;38531;53.296;6.614;2023-12-28T10:18:43;11.00;99.90
52643;DHT22;38531;53.296;6.614;2023-12-28T10:21:10;11.00;99.90
52643;DHT22;38531;53.296;6.614;2023-12-28T10:23:35;11.50;99.90
52643;DHT22;38531;53.296;6.614;2023-12-28T10:26:02;11.00;99.90
52643;DHT22;38531;53.296;6.614;2023-12-28T10:28:31;11.00;99.90
52643;DHT22;38531;53.296;6.614;2023-12-28T10:30:58;11.10;99.90
52643;DHT22;38531;53.296;6.614;2023-12-28T10:33:24;11.10;99.90
52643;DHT22;38531;53.296;6.614;2023-12-28T10:35:51;11.10;99.90
52643;DHT22;38531;53.296;6.614;2023-12-28T10:38:19;11.50;99.90
52643;DHT22;38531;53.296;6.614;2023-12-28T10:40:46;11.00;99.90
52643;DHT22;38531;53.296;6.614;2023-12-28T10:43:16;11.50;99.90
52643;DHT22;38531;53.296;6.614;2023-12-28T10:45:42;11.10;99.90
52643;DHT22;38531;53.296;6.614;2023-12-28T10:48:12;11.10;99.90
52643;DHT22;38531;53.296;6.614;2023-12-28T10:50:43;11.10;99.90
52643;DHT22;38531;53.296;6.614;2023-12-28T10:56:20;11.10;99.90
52643;DHT22;38531;53.296;6.614;2023-12-28T11:01:40;11.10;99.90
52643;DHT22;38531;53.296;6.614;2023-12-28T11:04:13;11.10;99.90
52643;DHT22;38531;53.296;6.614;2023-12-28T11:06:43;11.10;99.90
52643;DHT22;38531;53.296;6.614;2023-12-28T11:09:10;11.10;99.90
52643;DHT22;38531;53.296;6.614;2023-12-28T11:11:37;11.10;99.90
52643;DHT22;38531;53.296;6.614;2023-12-28T11:14:03;11.10;99.90
52643;DHT22;38531;53.296;6.614;2023-12-28T11:16:30;11.00;99.90
52643;DHT22;38531;53.296;6.614;2023-12-28T11:18:58;11.00;99.90
52643;DHT22;38531;53.296;6.614;2023-12-28T11:21:24;11.00;99.90
52643;DHT22;38531;53.296;6.614;2023-12-28T11:23:50;11.20;99.90
52643;DHT22;38531;53.296;6.614;2023-12-28T11:26:18;11.50;99.90
52643;DHT22;38531;53.296;6.614;2023-12-28T11:28:44;10.90;99.90
52643;DHT22;38531;53.296;6.614;2023-12-28T11:31:10;10.90;99.90
52643;DHT22;38531;53.296;6.614;2023-12-28T11:33:46;10.90;99.90
52643;DHT22;38531;53.296;6.614;2023-12-28T11:36:24;11.20;99.90
52643;DHT22;38531;53.296;6.614;2023-12-28T11:38:53;10.90;99.90
52643;DHT22;38531;53.296;6.614;2023-12-28T11:41:24;11.00;99.90
52643;DHT22;38531;53.296;6.614;2023-12-28T11:43:54;11.00;99.90
52643;DHT22;38531;53.296;6.614;2023-12-28T11:46:23;11.10;99.90
52643;DHT22;38531;53.296;6.614;2023-12-28T11:48:48;11.10;99.90
52643;DHT22;38531;53.296;6.614;2023-12-28T11:51:14;11.10;99.90
52643;DHT22;38531;53.296;6.614;2023-12-28T11:53:41;11.10;99.90
52643;DHT22;38531;53.296;6.614;2023-12-28T11:56:07;11.30;99.90
52643;DHT22;38531;53.296;6.614;2023-12-28T11:58:35;11.10;99.90
52643;DHT22;38531;53.296;6.614;2023-12-28T12:01:04;11.70;99.90
52643;DHT22;38531;53.296;6.614;2023-12-28T12:03:29;11.00;99.90
52643;DHT22;38531;53.296;6.614;2023-12-28T12:05:55;10.90;99.90
52643;DHT22;38531;53.296;6.614;2023-12-28T12:08:22;11.40;99.90
52643;DHT22;38531;53.296;6.614;2023-12-28T12:10:59;11.10;99.90
52643;DHT22;38531;53.296;6.614;2023-12-28T12:13:25;11.50;99.90
52643;DHT22;38531;53.296;6.614;2023-12-28T12:15:51;11.10;99.90
52643;DHT22;38531;53.296;6.614;2023-12-28T12:18:17;11.10;99.90
52643;DHT22;38531;53.296;6.614;2023-12-28T12:20:43;11.00;99.90
52643;DHT22;38531;53.296;6.614;2023-12-28T12:23:08;11.20;99.90
52643;DHT22;38531;53.296;6.614;2023-12-28T12:25:34;11.20;99.90
52643;DHT22;38531;53.296;6.614;2023-12-28T12:28:00;11.40;99.90
52643;DHT22;38531;53.296;6.614;2023-12-28T12:30:26;11.00;99.90
52643;DHT22;38531;53.296;6.614;2023-12-28T12:32:51;11.30;99.90
52643;DHT22;38531;53.296;6.614;2023-12-28T12:35:17;10.90;99.90
52643;DHT22;38531;53.296;6.614;2023-12-28T12:37:47;11.40;99.90
52643;DHT22;38531;53.296;6.614;2023-12-28T12:40:14;11.00;99.90
52643;DHT22;38531;53.296;6.614;2023-12-28T12:42:41;11.00;99.90
52643;DHT22;38531;53.296;6.614;2023-12-28T12:45:08;10.90;99.90
52643;DHT22;38531;53.296;6.614;2023-12-28T12:47:34;10.90;99.90
52643;DHT22;38531;53.296;6.614;2023-12-28T12:50:00;11.40;99.90
52643;DHT22;38531;53.296;6.614;2023-12-28T12:52:26;11.00;99.90
52643;DHT22;38531;53.296;6.614;2023-12-28T12:54:56;11.20;99.90
52643;DHT22;38531;53.296;6.614;2023-12-28T12:57:24;10.90;99.90
52643;DHT22;38531;53.296;6.614;2023-12-28T12:59:51;10.90;99.90
52643;DHT22;38531;53.296;6.614;2023-12-28T13:02:17;10.90;99.90
52643;DHT22;38531;53.296;6.614;2023-12-28T13:04:42;10.90;99.90
52643;DHT22;38531;53.296;6.614;2023-12-28T13:07:08;10.90;99.90
52643;DHT22;38531;53.296;6.614;2023-12-28T13:09:34;11.00;99.90
52643;DHT22;38531;53.296;6.614;2023-12-28T13:12:01;11.10;99.90
52643;DHT22;38531;53.296;6.614;2023-12-28T13:14:27;11.00;99.90
52643;DHT22;38531;53.296;6.614;2023-12-28T13:16:53;11.20;99.90
52643;DHT22;38531;53.296;6.614;2023-12-28T13:19:20;11.00;99.90
52643;DHT22;38531;53.296;6.614;2023-12-28T13:21:46;11.30;99.90
52643;DHT22;38531;53.296;6.614;2023-12-28T13:24:12;11.00;99.90
52643;DHT22;38531;53.296;6.614;2023-12-28T13:26:37;11.00;99.90
52643;DHT22;38531;53.296;6.614;2023-12-28T13:29:03;11.10;99.90
52643;DHT22;38531;53.296;6.614;2023-12-28T13:31:29;11.00;99.90
52643;DHT22;38531;53.296;6.614;2023-12-28T13:33:54;10.90;99.90
52643;DHT22;38531;53.296;6.614;2023-12-28T13:36:20;11.00;99.90
52643;DHT22;38531;53.296;6.614;2023-12-28T13:38:46;11.00;99.90
52643;DHT22;38531;53.296;6.614;2023-12-28T13:41:13;10.90;99.90
52643;DHT22;38531;53.296;6.614;2023-12-28T13:43:39;10.90;99.90
52643;DHT22;38531;53.296;6.614;2023-12-28T13:46:04;11.00;99.90
52643;DHT22;38531;53.296;6.614;2023-12-28T13:48:31;11.00;99.90
52643;DHT22;38531;53.296;6.614;2023-12-28T13:50:56;11.00;99.90
52643;DHT22;38531;53.296;6.614;2023-12-28T13:53:22;11.70;99.90
52643;DHT22;38531;53.296;6.614;2023-12-28T13:55:48;10.90;99.90
52643;DHT22;38531;53.296;6.614;2023-12-28T13:58:13;11.20;99.90
52643;DHT22;38531;53.296;6.614;2023-12-28T14:00:42;11.10;99.90
52643;DHT22;38531;53.296;6.614;2023-12-28T14:03:08;10.90;99.90
52643;DHT22;38531;53.296;6.614;2023-12-28T14:05:33;10.90;99.90
52643;DHT22;38531;53.296;6.614;2023-12-28T14:07:59;10.90;99.90
52643;DHT22;38531;53.296;6.614;2023-12-28T14:10:25;10.90;99.90
52643;DHT22;38531;53.296;6.614;2023-12-28T14:12:50;10.90;99.90
52643;DHT22;38531;53.296;6.614;2023-12-28T14:15:16;10.90;99.90
52643;DHT22;38531;53.296;6.614;2023-12-28T14:17:42;11.00;99.90
52643;DHT22;38531;53.296;6.614;2023-12-28T14:20:08;10.90;99.90
52643;DHT22;38531;53.296;6.614;2023-12-28T14:22:37;10.80;99.90
52643;DHT22;38531;53.296;6.614;2023-12-28T14:25:04;10.80;99.90
52643;DHT22;38531;53.296;6.614;2023-12-28T14:27:30;10.80;99.90
52643;DHT22;38531;53.296;6.614;2023-12-28T14:29:56;10.70;99.90
52643;DHT22;38531;53.296;6.614;2023-12-28T14:32:22;10.70;99.90
52643;DHT22;38531;53.296;6.614;2023-12-28T14:34:48;10.70;99.90
52643;DHT22;38531;53.296;6.614;2023-12-28T14:37:14;10.70;99.90
52643;DHT22;38531;53.296;6.614;2023-12-28T14:39:40;10.70;99.90
52643;DHT22;38531;53.296;6.614;2023-12-28T14:42:05;10.70;99.90
52643;DHT22;38531;53.296;6.614;2023-12-28T14:44:31;10.60;99.90
52643;DHT22;38531;53.296;6.614;2023-12-28T14:46:57;10.60;99.90
52643;DHT22;38531;53.296;6.614;2023-12-28T14:49:22;10.50;99.90
52643;DHT22;38531;53.296;6.614;2023-12-28T14:51:48;10.40;99.90
52643;DHT22;38531;53.296;6.614;2023-12-28T14:54:14;10.40;99.90
52643;DHT22;38531;53.296;6.614;2023-12-28T14:56:40;10.80;99.90
52643;DHT22;38531;53.296;6.614;2023-12-28T14:59:05;10.40;99.90
52643;DHT22;38531;53.296;6.614;2023-12-28T15:01:31;10.60;99.90
52643;DHT22;38531;53.296;6.614;2023-12-28T15:03:56;10.20;99.90
52643;DHT22;38531;53.296;6.614;2023-12-28T15:06:22;10.10;99.90
52643;DHT22;38531;53.296;6.614;2023-12-28T15:08:48;10.20;99.90
52643;DHT22;38531;53.296;6.614;2023-12-28T15:11:14;10.80;99.90
52643;DHT22;38531;53.296;6.614;2023-12-28T15:13:40;10.10;99.90
52643;DHT22;38531;53.296;6.614;2023-12-28T15:16:06;10.10;99.90
52643;DHT22;38531;53.296;6.614;2023-12-28T15:18:35;10.00;99.90
52643;DHT22;38531;53.296;6.614;2023-12-28T15:21:01;10.10;99.90
52643;DHT22;38531;53.296;6.614;2023-12-28T15:23:27;10.10;99.90
52643;DHT22;38531;53.296;6.614;2023-12-28T15:25:53;10.00;99.90
52643;DHT22;38531;53.296;6.614;2023-12-28T15:28:19;10.10;99.90
52643;DHT22;38531;53.296;6.614;2023-12-28T15:30:46;9.90;99.90
52643;DHT22;38531;53.296;6.614;2023-12-28T15:33:11;10.40;99.90
52643;DHT22;38531;53.296;6.614;2023-12-28T15:35:38;10.70;99.90
52643;DHT22;38531;53.296;6.614;2023-12-28T15:38:04;9.90;99.90
52643;DHT22;38531;53.296;6.614;2023-12-28T15:40:30;9.70;99.90
52643;DHT22;38531;53.296;6.614;2023-12-28T15:42:55;9.90;99.90